createdAt,value
2019-02-11T00:01:43.138Z,99.90
2019-02-11T00:04:12.787Z,99.90
2019-02-11T00:06:42.498Z,99.90
2019-02-11T00:09:12.230Z,99.90
2019-02-11T00:11:41.874Z,99.90
2019-02-11T00:14:11.513Z,99.90
2019-02-11T00:16:41.174Z,99.90
2019-02-11T00:22:31.609Z,99.90
2019-02-11T00:25:01.230Z,99.90
2019-02-11T00:27:31.418Z,99.90
2019-02-11T00:30:01.109Z,99.90
2019-02-11T00:32:30.766Z,99.90
2019-02-11T00:35:00.454Z,99.90
2019-02-11T00:37:30.114Z,99.90
2019-02-11T00:39:59.755Z,99.90
2019-02-11T00:42:29.457Z,99.90
2019-02-11T00:44:59.097Z,99.90
2019-02-11T00:47:28.846Z,99.90
2019-02-11T00:49:58.529Z,99.90
2019-02-11T00:52:28.206Z,99.90
2019-02-11T00:54:57.880Z,99.90
2019-02-11T00:57:27.609Z,99.90
2019-02-11T00:59:57.362Z,99.90
2019-02-11T01:02:27.033Z,99.90
2019-02-11T01:04:56.669Z,99.90
2019-02-11T01:07:26.386Z,99.90
2019-02-11T01:09:56.082Z,99.90
2019-02-11T01:12:25.789Z,99.90
2019-02-11T01:14:55.548Z,99.90
2019-02-11T01:17:25.282Z,99.90
2019-02-11T01:19:54.958Z,99.90
2019-02-11T01:22:24.661Z,99.90
2019-02-11T01:24:54.380Z,99.90
2019-02-11T01:27:24.023Z,99.90
2019-02-11T01:29:53.650Z,99.90
2019-02-11T01:32:23.373Z,99.90
2019-02-11T01:34:53.106Z,99.90
2019-02-11T01:37:22.790Z,99.90
2019-02-11T01:39:52.463Z,99.90
2019-02-11T01:42:22.111Z,99.90
2019-02-11T01:44:51.840Z,99.90
2019-02-11T01:47:21.522Z,99.90
2019-02-11T01:49:51.197Z,99.90
2019-02-11T01:52:21.350Z,99.90
2019-02-11T01:54:50.990Z,99.90
2019-02-11T01:57:20.691Z,99.90
2019-02-11T01:59:50.406Z,99.90
2019-02-11T02:02:20.515Z,99.90
2019-02-11T02:04:50.210Z,99.90
2019-02-11T02:07:19.862Z,99.90
2019-02-11T02:09:49.557Z,99.90
2019-02-11T02:12:19.268Z,99.90
2019-02-11T02:14:48.942Z,99.90
2019-02-11T02:17:19.043Z,99.90
2019-02-11T02:19:48.791Z,99.90
2019-02-11T02:22:18.486Z,99.90
2019-02-11T02:24:51.333Z,99.90
2019-02-11T02:27:21.012Z,99.90
2019-02-11T02:29:50.694Z,99.90
2019-02-11T02:32:20.350Z,99.90
2019-02-11T02:34:49.990Z,99.90
2019-02-11T02:37:19.659Z,99.90
2019-02-11T02:39:49.406Z,99.90
2019-02-11T02:42:19.174Z,99.90
2019-02-11T02:44:48.837Z,99.90
2019-02-11T02:47:18.590Z,99.90
2019-02-11T02:49:48.266Z,99.90
2019-02-11T02:52:17.902Z,99.90
2019-02-11T02:54:47.629Z,99.90
2019-02-11T02:57:17.307Z,99.90
2019-02-11T02:59:47.498Z,99.90
2019-02-11T03:02:17.138Z,99.90
2019-02-11T03:04:46.842Z,99.90
2019-02-11T03:07:16.492Z,99.90
2019-02-11T03:09:46.144Z,99.90
2019-02-11T03:12:15.850Z,99.90
2019-02-11T03:14:45.531Z,99.90
2019-02-11T03:17:15.206Z,99.90
2019-02-11T03:19:44.913Z,99.90
2019-02-11T03:22:14.551Z,99.90
2019-02-11T03:24:44.598Z,99.90
2019-02-11T03:27:14.609Z,99.90
2019-02-11T03:29:44.286Z,99.90
2019-02-11T03:32:14.061Z,99.90
2019-02-11T03:34:43.728Z,99.90
2019-02-11T03:37:13.418Z,99.90
2019-02-11T03:39:43.114Z,99.90
2019-02-11T03:42:12.766Z,99.90
2019-02-11T03:44:42.408Z,99.90
2019-02-11T03:47:12.573Z,99.90
2019-02-11T03:49:42.210Z,99.90
2019-02-11T03:52:11.893Z,99.90
2019-02-11T03:54:41.949Z,99.90
2019-02-11T03:57:11.608Z,99.90
2019-02-11T03:59:41.320Z,99.90
2019-02-11T04:02:10.983Z,99.90
2019-02-11T04:04:40.718Z,99.90
2019-02-11T04:07:10.362Z,99.90
2019-02-11T04:09:40.034Z,99.90
2019-02-11T04:12:09.797Z,99.90
2019-02-11T04:14:39.494Z,99.90
2019-02-11T04:17:09.222Z,99.90
2019-02-11T04:19:38.905Z,99.90
2019-02-11T04:22:09.755Z,99.90
2019-02-11T04:24:39.494Z,99.90
2019-02-11T04:27:09.167Z,99.90
2019-02-11T04:29:38.873Z,99.90
2019-02-11T04:32:08.610Z,99.90
2019-02-11T04:34:38.332Z,99.90
2019-02-11T04:37:08.303Z,99.90
2019-02-11T04:39:38.012Z,99.90
2019-02-11T04:42:07.644Z,99.90
2019-02-11T04:44:37.350Z,99.90
2019-02-11T04:47:06.980Z,99.90
2019-02-11T04:49:36.646Z,99.90
2019-02-11T04:52:06.301Z,99.90
2019-02-11T04:54:36.324Z,99.90
2019-02-11T04:57:05.974Z,99.90
2019-02-11T04:59:35.702Z,99.90
2019-02-11T05:02:05.342Z,99.90
2019-02-11T05:04:34.991Z,99.90
2019-02-11T05:07:04.759Z,99.90
2019-02-11T05:09:34.441Z,99.90
2019-02-11T05:12:04.078Z,99.90
2019-02-11T05:14:43.224Z,99.90
2019-02-11T05:17:05.390Z,99.90
2019-02-11T05:19:35.043Z,99.90
2019-02-11T05:22:04.739Z,99.90
2019-02-11T05:24:34.465Z,99.90
2019-02-11T05:27:04.112Z,99.90
2019-02-11T05:29:33.790Z,99.90
2019-02-11T05:32:03.487Z,99.90
2019-02-11T05:34:33.129Z,99.90
2019-02-11T05:37:02.759Z,99.90
2019-02-11T05:39:32.496Z,99.90
2019-02-11T05:42:02.126Z,99.90
2019-02-11T05:44:31.802Z,99.90
2019-02-11T05:47:01.526Z,99.90
2019-02-11T05:49:31.205Z,99.90
2019-02-11T05:52:00.944Z,99.90
2019-02-11T05:54:30.625Z,99.90
2019-02-11T05:57:00.319Z,99.90
2019-02-11T05:59:30.073Z,99.90
2019-02-11T06:01:59.831Z,99.90
2019-02-11T06:04:29.528Z,99.90
2019-02-11T06:06:59.212Z,99.90
2019-02-11T06:09:28.929Z,99.90
2019-02-11T06:11:58.569Z,99.90
2019-02-11T06:14:28.289Z,99.90
2019-02-11T06:16:58.044Z,99.90
2019-02-11T06:19:27.722Z,99.90
2019-02-11T06:21:57.408Z,99.90
2019-02-11T06:24:27.281Z,99.90
2019-02-11T06:26:56.944Z,99.90
2019-02-11T06:29:26.630Z,99.90
2019-02-11T06:31:56.378Z,99.90
2019-02-11T06:34:26.057Z,99.90
2019-02-11T06:36:55.833Z,99.90
2019-02-11T06:39:25.551Z,99.90
2019-02-11T06:41:55.279Z,99.90
2019-02-11T06:44:24.978Z,99.90
2019-02-11T06:46:54.658Z,99.90
2019-02-11T06:49:25.361Z,99.90
2019-02-11T06:51:57.681Z,99.90
2019-02-11T06:54:27.377Z,99.90
2019-02-11T06:56:57.055Z,99.90
2019-02-11T06:59:26.773Z,99.90
2019-02-11T07:01:56.454Z,99.90
2019-02-11T07:04:26.980Z,99.90
2019-02-11T07:06:56.651Z,99.90
2019-02-11T07:09:26.383Z,99.90
2019-02-11T07:11:56.088Z,99.90
2019-02-11T07:14:25.847Z,99.90
2019-02-11T07:16:55.543Z,99.90
2019-02-11T07:19:25.264Z,99.90
2019-02-11T07:21:54.919Z,99.90
2019-02-11T07:24:25.257Z,99.90
2019-02-11T07:26:54.957Z,99.90
2019-02-11T07:29:24.583Z,99.90
2019-02-11T07:31:54.298Z,99.90
2019-02-11T07:34:24.002Z,99.90
2019-02-11T07:36:53.682Z,99.90
2019-02-11T07:39:25.458Z,99.90
2019-02-11T07:42:12.351Z,99.90
2019-02-11T07:44:48.838Z,99.90
2019-02-11T07:47:18.514Z,99.90
2019-02-11T07:49:48.163Z,99.90
2019-02-11T07:52:17.863Z,99.90
2019-02-11T07:54:47.602Z,99.90
2019-02-11T07:57:17.280Z,99.90
2019-02-11T07:59:49.190Z,99.90
2019-02-11T08:02:20.319Z,99.90
2019-02-11T08:04:50.032Z,99.90
2019-02-11T08:07:19.710Z,99.90
2019-02-11T08:09:49.410Z,99.90
2019-02-11T08:12:19.046Z,99.90
2019-02-11T08:14:48.744Z,99.90
2019-02-11T08:17:18.418Z,99.90
2019-02-11T08:19:49.038Z,99.90
2019-02-11T08:22:18.746Z,99.90
2019-02-11T08:24:49.017Z,99.90
2019-02-11T08:27:18.758Z,99.90
2019-02-11T08:29:48.438Z,99.90
2019-02-11T08:32:18.141Z,99.90
2019-02-11T08:34:47.843Z,99.90
2019-02-11T08:37:17.591Z,99.90
2019-02-11T08:39:47.271Z,99.90
2019-02-11T08:42:16.950Z,99.90
2019-02-11T08:44:46.701Z,99.90
2019-02-11T08:47:16.708Z,99.90
2019-02-11T08:49:46.430Z,99.90
2019-02-11T08:52:16.127Z,99.90
2019-02-11T08:54:45.836Z,99.90
2019-02-11T08:57:15.519Z,99.90
2019-02-11T08:59:45.180Z,99.90
2019-02-11T09:02:14.810Z,99.90
2019-02-11T09:04:44.599Z,99.90
2019-02-11T09:07:14.739Z,99.90
2019-02-11T09:09:44.395Z,99.90
2019-02-11T09:12:14.078Z,99.90
2019-02-11T09:14:43.773Z,99.90
2019-02-11T09:17:13.416Z,99.90
2019-02-11T09:19:43.086Z,99.90
2019-02-11T09:22:13.097Z,99.90
2019-02-11T09:24:42.778Z,99.90
2019-02-11T09:27:12.422Z,99.90
2019-02-11T09:29:42.078Z,99.90
2019-02-11T09:32:11.739Z,99.90
2019-02-11T09:34:41.518Z,99.90
2019-02-11T09:37:11.218Z,99.90
2019-02-11T09:39:40.850Z,99.90
2019-02-11T09:42:10.544Z,99.90
2019-02-11T09:44:40.282Z,99.90
2019-02-11T09:47:09.965Z,99.90
2019-02-11T09:49:39.683Z,99.90
2019-02-11T09:52:09.368Z,99.90
2019-02-11T09:54:38.998Z,99.90
2019-02-11T09:57:11.449Z,99.90
2019-02-11T09:59:41.077Z,99.50
2019-02-11T10:02:10.754Z,99.90
2019-02-11T10:04:40.448Z,99.90
2019-02-11T10:07:10.142Z,99.90
2019-02-11T10:09:39.802Z,99.50
2019-02-11T10:12:11.525Z,99.10
2019-02-11T10:14:41.203Z,98.70
2019-02-11T10:17:10.869Z,98.20
2019-02-11T10:19:40.532Z,97.90
2019-02-11T10:22:10.222Z,97.90
2019-02-11T10:24:39.963Z,97.10
2019-02-11T10:27:09.690Z,96.90
2019-02-11T10:29:39.375Z,97.50
2019-02-11T10:32:09.211Z,96.90
2019-02-11T10:34:38.890Z,96.30
2019-02-11T10:37:08.566Z,96.40
2019-02-11T10:39:39.049Z,96.20
2019-02-11T10:42:09.387Z,96.50
2019-02-11T10:44:39.031Z,96.50
2019-02-11T10:47:08.971Z,96.00
2019-02-11T10:49:38.686Z,96.70
2019-02-11T10:52:08.307Z,96.30
2019-02-11T10:54:37.998Z,96.70
2019-02-11T10:57:07.686Z,96.40
2019-02-11T10:59:37.377Z,96.50
2019-02-11T11:02:07.506Z,97.20
2019-02-11T11:04:37.190Z,96.90
2019-02-11T11:07:06.854Z,96.20
2019-02-11T11:09:36.553Z,97.00
2019-02-11T11:12:07.648Z,95.80
2019-02-11T11:14:37.329Z,96.00
2019-02-11T11:17:08.658Z,95.40
2019-02-11T11:19:38.889Z,95.30
2019-02-11T11:22:08.643Z,94.80
2019-02-11T11:24:38.321Z,94.30
2019-02-11T11:27:08.046Z,95.10
2019-02-11T11:29:37.704Z,95.00
2019-02-11T11:32:07.510Z,94.60
2019-02-11T11:34:37.170Z,95.30
2019-02-11T11:37:06.880Z,94.60
2019-02-11T11:39:36.574Z,94.00
2019-02-11T11:42:06.222Z,94.50
2019-02-11T11:44:35.893Z,94.10
2019-02-11T11:47:05.614Z,94.90
2019-02-11T11:49:35.330Z,94.20
2019-02-11T11:52:06.003Z,93.70
2019-02-11T11:54:35.745Z,93.10
2019-02-11T11:57:05.539Z,92.50
2019-02-11T11:59:35.166Z,93.00
2019-02-11T12:02:04.929Z,92.80
2019-02-11T12:04:34.610Z,91.40
2019-02-11T12:07:04.423Z,91.90
2019-02-11T12:09:34.083Z,92.70
2019-02-11T12:12:03.864Z,92.80
2019-02-11T12:14:33.555Z,92.40
2019-02-11T12:17:03.899Z,91.70
2019-02-11T12:19:33.640Z,91.50
2019-02-11T12:22:03.480Z,91.40
2019-02-11T12:24:33.140Z,91.10
2019-02-11T12:27:02.876Z,91.80
2019-02-11T12:29:32.597Z,91.70
2019-02-11T12:32:02.226Z,92.90
2019-02-11T12:34:31.976Z,93.60
2019-02-11T12:37:01.610Z,94.70
2019-02-11T12:39:31.296Z,96.70
2019-02-11T12:42:00.953Z,96.90
2019-02-11T12:44:30.683Z,98.60
2019-02-11T12:47:13.051Z,99.90
2019-02-11T12:49:31.799Z,99.90
2019-02-11T12:52:01.488Z,99.90
2019-02-11T12:54:31.213Z,99.90
2019-02-11T12:57:00.854Z,99.90
2019-02-11T12:59:30.689Z,99.90
2019-02-11T13:02:00.398Z,99.90
2019-02-11T13:04:30.101Z,99.90
2019-02-11T13:06:59.828Z,99.90
2019-02-11T13:09:31.230Z,99.90
2019-02-11T13:12:00.984Z,99.90
2019-02-11T13:14:31.367Z,99.90
2019-02-11T13:17:14.152Z,99.90
2019-02-11T13:19:32.403Z,99.90
2019-02-11T13:22:02.121Z,99.90
2019-02-11T13:24:31.768Z,99.90
2019-02-11T13:27:01.439Z,99.90
2019-02-11T13:29:31.240Z,99.90
2019-02-11T13:32:00.947Z,99.90
2019-02-11T13:34:30.670Z,99.90
2019-02-11T13:37:00.408Z,99.90
2019-02-11T13:39:31.145Z,99.90
2019-02-11T13:42:00.904Z,99.90
2019-02-11T13:44:30.607Z,99.90
2019-02-11T13:47:00.326Z,99.90
2019-02-11T13:49:32.818Z,99.90
2019-02-11T13:52:02.563Z,99.90
2019-02-11T13:54:32.675Z,99.90
2019-02-11T13:57:02.361Z,99.90
2019-02-11T13:59:32.025Z,99.90
2019-02-11T14:02:01.685Z,99.90
2019-02-11T14:04:31.949Z,99.90
2019-02-11T14:07:01.638Z,99.90
2019-02-11T14:09:31.357Z,99.90
2019-02-11T14:12:01.046Z,99.90
2019-02-11T14:14:31.614Z,99.90
2019-02-11T14:17:01.255Z,99.90
2019-02-11T14:19:31.031Z,99.90
2019-02-11T14:22:00.705Z,99.90
2019-02-11T14:24:30.411Z,99.90
2019-02-11T14:27:00.066Z,99.90
2019-02-11T14:29:29.851Z,99.90
2019-02-11T14:31:59.565Z,99.90
2019-02-11T14:34:29.241Z,99.90
2019-02-11T14:36:58.916Z,99.90
2019-02-11T14:39:28.631Z,99.90
2019-02-11T14:41:58.293Z,99.90
2019-02-11T14:44:27.988Z,99.90
2019-02-11T14:46:57.694Z,99.90
2019-02-11T14:49:27.343Z,99.90
2019-02-11T14:51:57.008Z,99.90
2019-02-11T14:54:26.647Z,99.90
2019-02-11T14:56:56.342Z,99.90
2019-02-11T14:59:26.055Z,99.90
2019-02-11T15:01:55.782Z,99.90
2019-02-11T15:04:25.456Z,99.90
2019-02-11T15:06:55.139Z,99.90
2019-02-11T15:09:24.918Z,99.90
2019-02-11T15:11:55.099Z,99.90
2019-02-11T15:14:24.875Z,99.90
2019-02-11T15:16:54.603Z,99.90
2019-02-11T15:19:24.266Z,99.90
2019-02-11T15:21:53.958Z,99.90
2019-02-11T15:24:23.702Z,99.90
2019-02-11T15:26:53.414Z,99.90
2019-02-11T15:29:23.609Z,99.90
2019-02-11T15:31:53.314Z,99.90
2019-02-11T15:34:23.026Z,99.90
2019-02-11T15:36:52.779Z,99.90
2019-02-11T15:39:22.474Z,99.90
2019-02-11T15:41:52.171Z,99.90
2019-02-11T15:44:21.887Z,99.90
2019-02-11T15:46:51.550Z,99.90
2019-02-11T15:49:21.270Z,99.90
2019-02-11T15:51:50.936Z,99.90
2019-02-11T15:54:20.591Z,99.90
2019-02-11T15:56:50.338Z,99.90
2019-02-11T15:59:20.027Z,99.90
2019-02-11T16:01:50.439Z,99.90
2019-02-11T16:04:20.154Z,99.90
2019-02-11T16:06:49.856Z,99.90
2019-02-11T16:09:19.690Z,99.90
2019-02-11T16:11:49.442Z,99.90
2019-02-11T16:14:19.111Z,99.90
2019-02-11T16:16:48.816Z,99.90
2019-02-11T16:19:18.567Z,99.90
2019-02-11T16:21:48.326Z,99.90
2019-02-11T16:24:18.070Z,99.90
2019-02-11T16:26:47.808Z,99.90
2019-02-11T16:29:17.543Z,99.90
2019-02-11T16:31:47.267Z,99.90
2019-02-11T16:34:16.928Z,99.90
2019-02-11T16:36:46.635Z,99.90
2019-02-11T16:39:16.351Z,99.90
2019-02-11T16:41:45.990Z,99.90
2019-02-11T16:44:15.698Z,99.90
2019-02-11T16:46:45.429Z,99.90
2019-02-11T16:49:15.123Z,99.90
2019-02-11T16:51:44.801Z,99.90
2019-02-11T16:54:14.476Z,99.90
2019-02-11T16:56:44.119Z,99.90
2019-02-11T16:59:13.835Z,99.90
2019-02-11T17:01:43.570Z,99.90
2019-02-11T17:04:13.800Z,99.90
2019-02-11T17:06:43.499Z,99.90
2019-02-11T17:09:13.183Z,99.90
2019-02-11T17:11:42.811Z,99.90
2019-02-11T17:14:12.501Z,99.90
2019-02-11T17:16:42.401Z,99.90
2019-02-11T17:19:16.413Z,99.90
2019-02-11T17:21:46.080Z,99.90
2019-02-11T17:24:15.873Z,99.90
2019-02-11T17:26:45.530Z,99.90
2019-02-11T17:29:15.209Z,99.90
2019-02-11T17:31:44.938Z,99.90
2019-02-11T17:34:14.577Z,99.90
2019-02-11T17:36:44.267Z,99.90
2019-02-11T17:39:13.906Z,99.90
2019-02-11T17:41:43.551Z,99.90
2019-02-11T17:44:13.426Z,99.90
2019-02-11T17:46:43.080Z,99.90
2019-02-11T17:49:17.868Z,99.90
2019-02-11T17:51:44.083Z,99.90
2019-02-11T17:54:14.087Z,99.90
2019-02-11T17:56:43.727Z,99.90
2019-02-11T17:59:13.350Z,99.90
2019-02-11T18:01:43.148Z,99.90
2019-02-11T18:04:12.790Z,99.90
2019-02-11T18:06:42.466Z,99.90
2019-02-11T18:09:12.174Z,99.90
2019-02-11T18:11:41.825Z,99.90
2019-02-11T18:14:11.589Z,99.90
2019-02-11T18:16:42.256Z,99.90
2019-02-11T18:19:11.959Z,99.90
2019-02-11T18:21:41.640Z,99.90
2019-02-11T18:24:11.372Z,99.90
2019-02-11T18:26:41.056Z,99.90
2019-02-11T18:29:10.775Z,99.90
2019-02-11T18:31:40.458Z,99.90
2019-02-11T18:34:10.221Z,99.90
2019-02-11T18:36:39.931Z,99.90
2019-02-11T18:39:10.378Z,99.90
2019-02-11T18:41:42.010Z,99.90
2019-02-11T18:44:11.694Z,99.90
2019-02-11T18:46:41.365Z,99.90
2019-02-11T18:49:15.153Z,99.90
2019-02-11T18:51:44.789Z,99.90
2019-02-11T18:54:14.432Z,99.90
2019-02-11T18:56:44.137Z,99.90
2019-02-11T18:59:13.803Z,99.90
2019-02-11T19:01:43.466Z,99.90
2019-02-11T19:04:13.117Z,99.90
2019-02-11T19:06:42.798Z,99.90
2019-02-11T19:09:16.092Z,99.90
2019-02-11T19:11:45.795Z,99.90
2019-02-11T19:14:15.430Z,99.90
2019-02-11T19:16:45.128Z,99.90
2019-02-11T19:19:14.775Z,99.90
2019-02-11T19:21:44.421Z,99.90
2019-02-11T19:24:14.099Z,99.90
2019-02-11T19:26:44.242Z,99.90
2019-02-11T19:29:13.914Z,99.90
2019-02-11T19:31:43.571Z,99.90
2019-02-11T19:34:13.301Z,99.90
2019-02-11T19:36:42.973Z,99.90
2019-02-11T19:39:12.626Z,99.90
2019-02-11T19:41:43.146Z,99.90
2019-02-11T19:44:12.930Z,99.90
2019-02-11T19:46:42.670Z,99.90
2019-02-11T19:49:12.423Z,99.90
2019-02-11T19:51:42.124Z,99.90
2019-02-11T19:54:11.802Z,99.90
2019-02-11T19:56:41.527Z,99.90
2019-02-11T19:59:11.166Z,99.90
2019-02-11T20:01:40.830Z,99.90
2019-02-11T20:04:10.477Z,99.90
2019-02-11T20:06:40.191Z,99.90
2019-02-11T20:09:10.052Z,99.90
2019-02-11T20:11:40.010Z,99.90
2019-02-11T20:14:09.670Z,99.90
2019-02-11T20:16:39.375Z,99.90
2019-02-11T20:19:09.109Z,99.90
2019-02-11T20:21:38.787Z,99.90
2019-02-11T20:24:08.551Z,99.90
2019-02-11T20:26:38.202Z,99.90
2019-02-11T20:29:07.889Z,99.90
2019-02-11T20:31:37.664Z,99.90
2019-02-11T20:34:07.298Z,99.90
2019-02-11T20:36:36.930Z,99.90
2019-02-11T20:39:07.595Z,99.90
2019-02-11T20:41:37.306Z,99.90
2019-02-11T20:44:07.598Z,99.90
2019-02-11T20:46:37.246Z,99.90
2019-02-11T20:49:06.967Z,99.90
2019-02-11T20:51:36.658Z,99.90
2019-02-11T20:54:06.427Z,99.90
2019-02-11T20:56:36.159Z,99.90
2019-02-11T20:59:05.799Z,99.90
2019-02-11T21:01:35.458Z,99.90
2019-02-11T21:04:05.123Z,99.90
2019-02-11T21:06:34.835Z,99.90
2019-02-11T21:09:05.986Z,99.90
2019-02-11T21:11:35.638Z,99.90
2019-02-11T21:14:05.305Z,99.90
2019-02-11T21:16:34.960Z,99.90
2019-02-11T21:19:04.614Z,99.90
2019-02-11T21:21:34.527Z,99.90
2019-02-11T21:24:04.348Z,99.90
2019-02-11T21:26:34.020Z,99.90
2019-02-11T21:29:05.502Z,99.90
2019-02-11T21:31:36.923Z,99.90
2019-02-11T21:34:06.897Z,99.90
2019-02-11T21:36:36.534Z,99.90
2019-02-11T21:39:08.023Z,99.90
2019-02-11T21:41:38.133Z,99.90
2019-02-11T21:44:07.805Z,99.90
2019-02-11T21:46:37.446Z,99.90
2019-02-11T21:49:07.163Z,99.90
2019-02-11T21:51:36.818Z,99.90
2019-02-11T21:54:06.587Z,99.90
2019-02-11T21:56:36.307Z,99.90
2019-02-11T21:59:05.922Z,99.90
2019-02-11T22:01:35.620Z,99.90
2019-02-11T22:04:05.308Z,99.90
2019-02-11T22:06:35.474Z,99.90
2019-02-11T22:09:09.311Z,99.90
2019-02-11T22:11:42.295Z,99.90
2019-02-11T22:14:11.938Z,99.90
2019-02-11T22:16:42.423Z,99.90
2019-02-11T22:19:12.177Z,99.90
2019-02-11T22:21:41.849Z,99.90
2019-02-11T22:24:11.536Z,99.90
2019-02-11T22:26:41.201Z,99.90
2019-02-11T22:29:10.838Z,99.90
2019-02-11T22:31:40.603Z,99.90
2019-02-11T22:34:10.242Z,99.90
2019-02-11T22:36:39.871Z,99.90
2019-02-11T22:39:10.174Z,99.90
2019-02-11T22:41:39.913Z,99.90
2019-02-11T22:44:09.609Z,99.90
2019-02-11T22:46:39.321Z,99.90
2019-02-11T22:49:08.955Z,99.90
2019-02-11T22:51:38.601Z,99.90
2019-02-11T22:54:08.294Z,99.90
2019-02-11T22:56:37.942Z,99.90
2019-02-11T22:59:07.579Z,99.90
2019-02-11T23:01:37.305Z,99.90
2019-02-11T23:04:06.973Z,99.90
2019-02-11T23:06:36.594Z,99.90
2019-02-11T23:09:12.034Z,99.90
2019-02-11T23:11:41.695Z,99.90
2019-02-11T23:14:11.798Z,99.90
2019-02-11T23:16:41.931Z,99.90
2019-02-11T23:19:11.593Z,99.90
2019-02-11T23:21:41.313Z,99.90
2019-02-11T23:24:10.962Z,99.90
2019-02-11T23:26:42.123Z,99.90
2019-02-11T23:29:12.593Z,99.90
2019-02-11T23:31:42.273Z,99.90
2019-02-11T23:34:11.905Z,99.90
2019-02-11T23:36:41.590Z,99.90
2019-02-11T23:39:17.689Z,99.90
2019-02-11T23:41:47.373Z,99.90
2019-02-11T23:44:17.031Z,99.90
2019-02-11T23:46:46.779Z,99.90
2019-02-11T23:49:16.497Z,99.90
2019-02-11T23:51:46.145Z,99.90
2019-02-11T23:54:15.786Z,99.90
2019-02-11T23:56:45.445Z,99.90
2019-02-11T23:59:15.085Z,99.90
